sensor_id;sensor_type;location;lat;lon;timestamp;P1;durP1;ratioP1;P2;durP2;ratioP2
15443;SDS011;7822;48.146;11.576;2022-10-28T00:00:48;6.70;;;3.13;;
15443;SDS011;7822;48.146;11.576;2022-10-28T00:03:17;5.50;;;3.80;;
15443;SDS011;7822;48.146;11.576;2022-10-28T00:05:45;4.93;;;3.13;;
15443;SDS011;7822;48.146;11.576;2022-10-28T00:08:13;4.20;;;3.10;;
15443;SDS011;7822;48.146;11.576;2022-10-28T00:10:40;4.60;;;3.10;;
15443;SDS011;7822;48.146;11.576;2022-10-28T00:13:08;4.05;;;2.92;;
15443;SDS011;7822;48.146;11.576;2022-10-28T00:15:36;4.10;;;3.00;;
15443;SDS011;7822;48.146;11.576;2022-10-28T00:18:03;4.20;;;3.40;;
15443;SDS011;7822;48.146;11.576;2022-10-28T00:20:32;5.00;;;3.10;;
15443;SDS011;7822;48.146;11.576;2022-10-28T00:23:00;4.53;;;3.20;;
15443;SDS011;7822;48.146;11.576;2022-10-28T00:25:27;3.47;;;2.67;;
15443;SDS011;7822;48.146;11.576;2022-10-28T00:27:55;3.33;;;2.40;;
15443;SDS011;7822;48.146;11.576;2022-10-28T00:30:22;3.78;;;2.35;;
15443;SDS011;7822;48.146;11.576;2022-10-28T00:32:51;2.97;;;1.90;;
15443;SDS011;7822;48.146;11.576;2022-10-28T00:35:19;4.32;;;2.17;;
15443;SDS011;7822;48.146;11.576;2022-10-28T00:37:48;3.35;;;2.10;;
15443;SDS011;7822;48.146;11.576;2022-10-28T00:40:19;2.67;;;1.73;;
15443;SDS011;7822;48.146;11.576;2022-10-28T00:42:46;6.63;;;2.03;;
15443;SDS011;7822;48.146;11.576;2022-10-28T00:45:14;3.67;;;1.97;;
15443;SDS011;7822;48.146;11.576;2022-10-28T00:47:43;3.97;;;1.70;;
15443;SDS011;7822;48.146;11.576;2022-10-28T00:53:08;3.03;;;1.70;;
15443;SDS011;7822;48.146;11.576;2022-10-28T00:55:40;1.70;;;1.60;;
15443;SDS011;7822;48.146;11.576;2022-10-28T00:58:09;3.63;;;2.00;;
15443;SDS011;7822;48.146;11.576;2022-10-28T01:00:37;2.40;;;2.20;;
15443;SDS011;7822;48.146;11.576;2022-10-28T01:03:05;3.50;;;1.87;;
15443;SDS011;7822;48.146;11.576;2022-10-28T01:05:33;2.25;;;2.05;;
15443;SDS011;7822;48.146;11.576;2022-10-28T01:08:04;3.10;;;2.08;;
15443;SDS011;7822;48.146;11.576;2022-10-28T01:10:45;4.07;;;2.58;;
15443;SDS011;7822;48.146;11.576;2022-10-28T01:13:27;3.70;;;1.70;;
15443;SDS011;7822;48.146;11.576;2022-10-28T01:16:06;5.05;;;2.13;;
15443;SDS011;7822;48.146;11.576;2022-10-28T01:18:44;2.40;;;1.90;;
15443;SDS011;7822;48.146;11.576;2022-10-28T01:21:30;4.35;;;2.13;;
15443;SDS011;7822;48.146;11.576;2022-10-28T01:24:14;3.17;;;2.10;;
15443;SDS011;7822;48.146;11.576;2022-10-28T01:26:59;4.27;;;2.03;;
15443;SDS011;7822;48.146;11.576;2022-10-28T01:29:43;2.30;;;1.60;;
15443;SDS011;7822;48.146;11.576;2022-10-28T01:32:26;4.60;;;2.10;;
15443;SDS011;7822;48.146;11.576;2022-10-28T01:35:00;3.67;;;1.67;;
15443;SDS011;7822;48.146;11.576;2022-10-28T01:37:39;2.67;;;1.83;;
15443;SDS011;7822;48.146;11.576;2022-10-28T01:40:16;2.13;;;1.70;;
15443;SDS011;7822;48.146;11.576;2022-10-28T01:42:51;2.17;;;1.63;;
15443;SDS011;7822;48.146;11.576;2022-10-28T01:45:23;2.80;;;1.70;;
15443;SDS011;7822;48.146;11.576;2022-10-28T01:47:56;3.60;;;2.10;;
15443;SDS011;7822;48.146;11.576;2022-10-28T01:50:28;3.60;;;1.80;;
15443;SDS011;7822;48.146;11.576;2022-10-28T01:53:06;2.77;;;1.73;;
15443;SDS011;7822;48.146;11.576;2022-10-28T01:55:37;3.67;;;2.17;;
15443;SDS011;7822;48.146;11.576;2022-10-28T01:58:07;4.00;;;2.03;;
15443;SDS011;7822;48.146;11.576;2022-10-28T02:00:37;4.27;;;1.87;;
15443;SDS011;7822;48.146;11.576;2022-10-28T02:03:08;2.50;;;1.53;;
15443;SDS011;7822;48.146;11.576;2022-10-28T02:05:38;4.83;;;1.80;;
15443;SDS011;7822;48.146;11.576;2022-10-28T02:11:05;3.43;;;1.70;;
15443;SDS011;7822;48.146;11.576;2022-10-28T02:13:45;2.23;;;1.80;;
15443;SDS011;7822;48.146;11.576;2022-10-28T02:16:22;2.90;;;2.57;;
15443;SDS011;7822;48.146;11.576;2022-10-28T02:19:01;2.70;;;2.13;;
15443;SDS011;7822;48.146;11.576;2022-10-28T02:21:37;3.67;;;2.10;;
15443;SDS011;7822;48.146;11.576;2022-10-28T02:24:14;2.50;;;2.30;;
15443;SDS011;7822;48.146;11.576;2022-10-28T02:26:50;3.43;;;2.07;;
15443;SDS011;7822;48.146;11.576;2022-10-28T02:29:23;4.33;;;2.93;;
15443;SDS011;7822;48.146;11.576;2022-10-28T02:32:01;3.33;;;2.30;;
15443;SDS011;7822;48.146;11.576;2022-10-28T02:34:34;2.63;;;2.00;;
15443;SDS011;7822;48.146;11.576;2022-10-28T02:37:07;2.67;;;2.10;;
15443;SDS011;7822;48.146;11.576;2022-10-28T02:39:40;2.43;;;1.80;;
15443;SDS011;7822;48.146;11.576;2022-10-28T02:42:13;2.83;;;1.77;;
15443;SDS011;7822;48.146;11.576;2022-10-28T02:44:46;2.97;;;2.10;;
15443;SDS011;7822;48.146;11.576;2022-10-28T02:47:19;3.23;;;1.77;;
15443;SDS011;7822;48.146;11.576;2022-10-28T02:49:52;3.40;;;1.70;;
15443;SDS011;7822;48.146;11.576;2022-10-28T02:52:23;4.13;;;2.57;;
15443;SDS011;7822;48.146;11.576;2022-10-28T02:54:54;3.57;;;1.80;;
15443;SDS011;7822;48.146;11.576;2022-10-28T02:57:24;1.93;;;1.80;;
15443;SDS011;7822;48.146;11.576;2022-10-28T02:59:55;3.67;;;1.77;;
15443;SDS011;7822;48.146;11.576;2022-10-28T03:02:24;3.10;;;1.80;;
15443;SDS011;7822;48.146;11.576;2022-10-28T03:04:53;1.80;;;1.70;;
15443;SDS011;7822;48.146;11.576;2022-10-28T03:07:21;3.03;;;1.77;;
15443;SDS011;7822;48.146;11.576;2022-10-28T03:09:48;2.27;;;1.60;;
15443;SDS011;7822;48.146;11.576;2022-10-28T03:12:16;2.83;;;1.80;;
15443;SDS011;7822;48.146;11.576;2022-10-28T03:14:44;1.73;;;1.37;;
15443;SDS011;7822;48.146;11.576;2022-10-28T03:17:12;2.80;;;1.90;;
15443;SDS011;7822;48.146;11.576;2022-10-28T03:19:40;1.97;;;1.47;;
15443;SDS011;7822;48.146;11.576;2022-10-28T03:22:09;2.47;;;1.87;;
15443;SDS011;7822;48.146;11.576;2022-10-28T03:24:36;4.07;;;1.50;;
15443;SDS011;7822;48.146;11.576;2022-10-28T03:27:04;1.97;;;1.47;;
15443;SDS011;7822;48.146;11.576;2022-10-28T03:29:31;2.90;;;1.73;;
15443;SDS011;7822;48.146;11.576;2022-10-28T03:31:59;2.80;;;1.47;;
15443;SDS011;7822;48.146;11.576;2022-10-28T03:34:27;3.13;;;1.70;;
15443;SDS011;7822;48.146;11.576;2022-10-28T03:36:55;4.07;;;1.77;;
15443;SDS011;7822;48.146;11.576;2022-10-28T03:39:24;4.07;;;1.93;;
15443;SDS011;7822;48.146;11.576;2022-10-28T03:41:51;4.73;;;1.80;;
15443;SDS011;7822;48.146;11.576;2022-10-28T03:44:19;3.10;;;1.95;;
15443;SDS011;7822;48.146;11.576;2022-10-28T03:46:46;2.27;;;1.70;;
15443;SDS011;7822;48.146;11.576;2022-10-28T03:49:14;3.30;;;2.07;;
15443;SDS011;7822;48.146;11.576;2022-10-28T03:51:42;5.30;;;3.47;;
15443;SDS011;7822;48.146;11.576;2022-10-28T03:54:09;3.53;;;2.70;;
15443;SDS011;7822;48.146;11.576;2022-10-28T03:56:38;2.43;;;1.60;;
15443;SDS011;7822;48.146;11.576;2022-10-28T03:59:07;2.57;;;1.40;;
15443;SDS011;7822;48.146;11.576;2022-10-28T04:01:35;3.77;;;1.63;;
15443;SDS011;7822;48.146;11.576;2022-10-28T04:04:03;1.97;;;1.10;;
15443;SDS011;7822;48.146;11.576;2022-10-28T04:06:31;3.00;;;1.50;;
15443;SDS011;7822;48.146;11.576;2022-10-28T04:08:58;2.17;;;1.13;;
15443;SDS011;7822;48.146;11.576;2022-10-28T04:11:26;2.43;;;1.30;;
15443;SDS011;7822;48.146;11.576;2022-10-28T04:13:55;2.67;;;1.50;;
15443;SDS011;7822;48.146;11.576;2022-10-28T04:16:22;1.93;;;1.50;;
15443;SDS011;7822;48.146;11.576;2022-10-28T04:18:50;3.20;;;1.50;;
15443;SDS011;7822;48.146;11.576;2022-10-28T04:21:18;2.90;;;1.47;;
15443;SDS011;7822;48.146;11.576;2022-10-28T04:23:45;2.80;;;1.67;;
15443;SDS011;7822;48.146;11.576;2022-10-28T04:26:13;3.73;;;1.60;;
15443;SDS011;7822;48.146;11.576;2022-10-28T04:28:40;5.60;;;1.70;;
15443;SDS011;7822;48.146;11.576;2022-10-28T04:31:09;4.13;;;1.70;;
15443;SDS011;7822;48.146;11.576;2022-10-28T04:33:38;3.17;;;1.40;;
15443;SDS011;7822;48.146;11.576;2022-10-28T04:36:05;2.37;;;1.67;;
15443;SDS011;7822;48.146;11.576;2022-10-28T04:38:33;2.07;;;1.67;;
15443;SDS011;7822;48.146;11.576;2022-10-28T04:41:01;4.23;;;1.50;;
15443;SDS011;7822;48.146;11.576;2022-10-28T04:43:29;2.60;;;1.73;;
15443;SDS011;7822;48.146;11.576;2022-10-28T04:45:56;2.53;;;1.60;;
15443;SDS011;7822;48.146;11.576;2022-10-28T04:48:32;2.43;;;1.60;;
15443;SDS011;7822;48.146;11.576;2022-10-28T04:50:59;2.77;;;1.80;;
15443;SDS011;7822;48.146;11.576;2022-10-28T04:53:27;2.67;;;1.60;;
15443;SDS011;7822;48.146;11.576;2022-10-28T04:55:55;2.77;;;1.80;;
15443;SDS011;7822;48.146;11.576;2022-10-28T04:58:24;1.93;;;1.40;;
15443;SDS011;7822;48.146;11.576;2022-10-28T05:00:52;2.83;;;1.17;;
15443;SDS011;7822;48.146;11.576;2022-10-28T05:03:19;3.13;;;1.50;;
15443;SDS011;7822;48.146;11.576;2022-10-28T05:05:48;2.37;;;1.63;;
15443;SDS011;7822;48.146;11.576;2022-10-28T05:08:16;2.73;;;1.57;;
15443;SDS011;7822;48.146;11.576;2022-10-28T05:10:44;2.87;;;1.60;;
15443;SDS011;7822;48.146;11.576;2022-10-28T05:13:15;6.07;;;1.77;;
15443;SDS011;7822;48.146;11.576;2022-10-28T05:15:42;2.83;;;1.50;;
15443;SDS011;7822;48.146;11.576;2022-10-28T05:18:10;3.00;;;1.97;;
15443;SDS011;7822;48.146;11.576;2022-10-28T05:20:38;3.50;;;1.80;;
15443;SDS011;7822;48.146;11.576;2022-10-28T05:23:06;4.10;;;2.10;;
15443;SDS011;7822;48.146;11.576;2022-10-28T05:25:34;2.23;;;2.00;;
15443;SDS011;7822;48.146;11.576;2022-10-28T05:28:02;3.07;;;1.60;;
15443;SDS011;7822;48.146;11.576;2022-10-28T05:30:29;1.53;;;1.43;;
15443;SDS011;7822;48.146;11.576;2022-10-28T05:32:57;4.43;;;1.80;;
15443;SDS011;7822;48.146;11.576;2022-10-28T05:35:28;4.33;;;1.70;;
15443;SDS011;7822;48.146;11.576;2022-10-28T05:37:57;2.40;;;2.13;;
15443;SDS011;7822;48.146;11.576;2022-10-28T05:40:26;3.87;;;1.80;;
15443;SDS011;7822;48.146;11.576;2022-10-28T05:42:53;3.00;;;1.83;;
15443;SDS011;7822;48.146;11.576;2022-10-28T05:45:22;3.93;;;2.00;;
15443;SDS011;7822;48.146;11.576;2022-10-28T05:47:49;4.77;;;1.73;;
15443;SDS011;7822;48.146;11.576;2022-10-28T05:50:17;3.60;;;2.10;;
15443;SDS011;7822;48.146;11.576;2022-10-28T05:52:46;3.53;;;2.10;;
15443;SDS011;7822;48.146;11.576;2022-10-28T05:55:15;3.07;;;1.70;;
15443;SDS011;7822;48.146;11.576;2022-10-28T05:57:46;3.50;;;1.90;;
15443;SDS011;7822;48.146;11.576;2022-10-28T06:00:14;3.57;;;2.27;;
15443;SDS011;7822;48.146;11.576;2022-10-28T06:02:42;4.10;;;2.30;;
15443;SDS011;7822;48.146;11.576;2022-10-28T06:05:10;4.80;;;3.13;;
15443;SDS011;7822;48.146;11.576;2022-10-28T06:07:38;5.07;;;2.67;;
15443;SDS011;7822;48.146;11.576;2022-10-28T06:10:07;5.10;;;2.20;;
15443;SDS011;7822;48.146;11.576;2022-10-28T06:12:36;5.80;;;2.93;;
15443;SDS011;7822;48.146;11.576;2022-10-28T06:15:06;2.67;;;1.90;;
15443;SDS011;7822;48.146;11.576;2022-10-28T06:17:34;3.43;;;2.33;;
15443;SDS011;7822;48.146;11.576;2022-10-28T06:20:02;5.23;;;2.20;;
15443;SDS011;7822;48.146;11.576;2022-10-28T06:22:30;4.37;;;2.23;;
15443;SDS011;7822;48.146;11.576;2022-10-28T06:24:58;2.67;;;1.73;;
15443;SDS011;7822;48.146;11.576;2022-10-28T06:27:26;5.17;;;2.50;;
15443;SDS011;7822;48.146;11.576;2022-10-28T06:29:53;6.00;;;2.80;;
15443;SDS011;7822;48.146;11.576;2022-10-28T06:32:22;6.83;;;2.87;;
15443;SDS011;7822;48.146;11.576;2022-10-28T06:34:50;7.60;;;3.37;;
15443;SDS011;7822;48.146;11.576;2022-10-28T06:37:17;7.23;;;3.43;;
15443;SDS011;7822;48.146;11.576;2022-10-28T06:39:45;5.30;;;2.90;;
15443;SDS011;7822;48.146;11.576;2022-10-28T06:42:16;7.10;;;3.30;;
15443;SDS011;7822;48.146;11.576;2022-10-28T06:44:44;4.83;;;2.83;;
15443;SDS011;7822;48.146;11.576;2022-10-28T06:47:11;6.03;;;2.77;;
15443;SDS011;7822;48.146;11.576;2022-10-28T06:49:40;6.20;;;3.30;;
15443;SDS011;7822;48.146;11.576;2022-10-28T06:52:08;4.77;;;3.17;;
15443;SDS011;7822;48.146;11.576;2022-10-28T06:54:35;4.80;;;2.93;;
15443;SDS011;7822;48.146;11.576;2022-10-28T06:57:03;5.07;;;2.93;;
15443;SDS011;7822;48.146;11.576;2022-10-28T06:59:31;4.37;;;2.80;;
15443;SDS011;7822;48.146;11.576;2022-10-28T07:01:59;5.47;;;2.57;;
15443;SDS011;7822;48.146;11.576;2022-10-28T07:04:27;3.53;;;2.53;;
15443;SDS011;7822;48.146;11.576;2022-10-28T07:06:56;5.20;;;3.07;;
15443;SDS011;7822;48.146;11.576;2022-10-28T07:09:24;6.00;;;3.10;;
15443;SDS011;7822;48.146;11.576;2022-10-28T07:11:52;5.43;;;3.10;;
15443;SDS011;7822;48.146;11.576;2022-10-28T07:14:21;5.47;;;2.80;;
15443;SDS011;7822;48.146;11.576;2022-10-28T07:16:48;6.67;;;3.00;;
15443;SDS011;7822;48.146;11.576;2022-10-28T07:19:16;4.27;;;2.80;;
15443;SDS011;7822;48.146;11.576;2022-10-28T07:21:47;5.30;;;3.00;;
15443;SDS011;7822;48.146;11.576;2022-10-28T07:24:16;4.67;;;2.73;;
15443;SDS011;7822;48.146;11.576;2022-10-28T07:26:46;5.20;;;2.80;;
15443;SDS011;7822;48.146;11.576;2022-10-28T07:29:18;5.97;;;2.70;;
15443;SDS011;7822;48.146;11.576;2022-10-28T07:31:45;5.23;;;2.80;;
15443;SDS011;7822;48.146;11.576;2022-10-28T07:34:13;4.70;;;2.70;;
15443;SDS011;7822;48.146;11.576;2022-10-28T07:36:41;4.23;;;2.83;;
15443;SDS011;7822;48.146;11.576;2022-10-28T07:39:08;5.50;;;2.27;;
15443;SDS011;7822;48.146;11.576;2022-10-28T07:41:37;3.70;;;2.40;;
15443;SDS011;7822;48.146;11.576;2022-10-28T07:44:05;3.63;;;2.10;;
15443;SDS011;7822;48.146;11.576;2022-10-28T07:46:33;4.93;;;2.40;;
15443;SDS011;7822;48.146;11.576;2022-10-28T07:49:01;5.17;;;2.90;;
15443;SDS011;7822;48.146;11.576;2022-10-28T07:51:28;4.63;;;2.90;;
15443;SDS011;7822;48.146;11.576;2022-10-28T07:53:56;3.50;;;3.17;;
15443;SDS011;7822;48.146;11.576;2022-10-28T07:56:24;5.13;;;3.00;;
15443;SDS011;7822;48.146;11.576;2022-10-28T07:58:53;4.50;;;2.43;;
15443;SDS011;7822;48.146;11.576;2022-10-28T08:01:20;4.67;;;2.93;;
15443;SDS011;7822;48.146;11.576;2022-10-28T08:03:48;5.60;;;3.20;;
15443;SDS011;7822;48.146;11.576;2022-10-28T08:06:17;4.88;;;2.63;;
15443;SDS011;7822;48.146;11.576;2022-10-28T08:08:47;3.97;;;2.33;;
15443;SDS011;7822;48.146;11.576;2022-10-28T08:11:19;5.30;;;3.00;;
15443;SDS011;7822;48.146;11.576;2022-10-28T08:13:49;5.35;;;3.00;;
15443;SDS011;7822;48.146;11.576;2022-10-28T08:16:18;2.85;;;2.55;;
15443;SDS011;7822;48.146;11.576;2022-10-28T08:18:46;4.53;;;2.67;;
15443;SDS011;7822;48.146;11.576;2022-10-28T08:21:14;7.77;;;2.90;;
15443;SDS011;7822;48.146;11.576;2022-10-28T08:23:42;2.43;;;2.03;;
15443;SDS011;7822;48.146;11.576;2022-10-28T08:26:11;4.30;;;2.30;;
15443;SDS011;7822;48.146;11.576;2022-10-28T08:28:40;4.27;;;2.40;;
15443;SDS011;7822;48.146;11.576;2022-10-28T08:31:08;7.88;;;2.38;;
15443;SDS011;7822;48.146;11.576;2022-10-28T08:33:39;4.38;;;1.95;;
15443;SDS011;7822;48.146;11.576;2022-10-28T08:36:09;3.10;;;1.75;;
15443;SDS011;7822;48.146;11.576;2022-10-28T08:38:39;5.43;;;2.67;;
15443;SDS011;7822;48.146;11.576;2022-10-28T08:41:17;3.85;;;2.20;;
15443;SDS011;7822;48.146;11.576;2022-10-28T08:43:54;4.57;;;2.20;;
15443;SDS011;7822;48.146;11.576;2022-10-28T08:46:35;4.32;;;1.65;;
15443;SDS011;7822;48.146;11.576;2022-10-28T08:49:17;3.47;;;2.03;;
15443;SDS011;7822;48.146;11.576;2022-10-28T08:51:49;4.15;;;1.85;;
15443;SDS011;7822;48.146;11.576;2022-10-28T08:54:22;3.60;;;2.08;;
15443;SDS011;7822;48.146;11.576;2022-10-28T08:56:53;3.95;;;1.98;;
15443;SDS011;7822;48.146;11.576;2022-10-28T08:59:26;3.35;;;1.80;;
15443;SDS011;7822;48.146;11.576;2022-10-28T09:01:58;3.33;;;1.83;;
15443;SDS011;7822;48.146;11.576;2022-10-28T09:04:34;4.47;;;1.88;;
15443;SDS011;7822;48.146;11.576;2022-10-28T09:07:04;2.53;;;1.55;;
15443;SDS011;7822;48.146;11.576;2022-10-28T09:09:37;4.00;;;2.13;;
15443;SDS011;7822;48.146;11.576;2022-10-28T09:12:07;4.22;;;1.85;;
15443;SDS011;7822;48.146;11.576;2022-10-28T09:14:43;5.78;;;1.98;;
15443;SDS011;7822;48.146;11.576;2022-10-28T09:17:24;4.65;;;1.75;;
15443;SDS011;7822;48.146;11.576;2022-10-28T09:20:04;2.92;;;1.67;;
15443;SDS011;7822;48.146;11.576;2022-10-28T09:22:41;2.85;;;1.95;;
15443;SDS011;7822;48.146;11.576;2022-10-28T09:25:19;2.42;;;1.80;;
15443;SDS011;7822;48.146;11.576;2022-10-28T09:30:49;6.03;;;2.03;;
15443;SDS011;7822;48.146;11.576;2022-10-28T09:33:38;4.10;;;2.35;;
15443;SDS011;7822;48.146;11.576;2022-10-28T09:36:15;3.63;;;2.10;;
15443;SDS011;7822;48.146;11.576;2022-10-28T09:38:49;4.68;;;2.35;;
15443;SDS011;7822;48.146;11.576;2022-10-28T09:41:19;3.08;;;1.80;;
15443;SDS011;7822;48.146;11.576;2022-10-28T09:43:50;5.70;;;2.20;;
15443;SDS011;7822;48.146;11.576;2022-10-28T09:46:21;5.82;;;2.33;;
15443;SDS011;7822;48.146;11.576;2022-10-28T09:48:52;5.78;;;2.13;;
15443;SDS011;7822;48.146;11.576;2022-10-28T09:51:27;4.28;;;2.03;;
15443;SDS011;7822;48.146;11.576;2022-10-28T09:54:00;2.97;;;1.80;;
15443;SDS011;7822;48.146;11.576;2022-10-28T09:56:28;2.35;;;1.95;;
15443;SDS011;7822;48.146;11.576;2022-10-28T09:58:57;5.38;;;2.50;;
15443;SDS011;7822;48.146;11.576;2022-10-28T10:01:27;4.15;;;1.80;;
15443;SDS011;7822;48.146;11.576;2022-10-28T10:03:59;4.93;;;2.00;;
15443;SDS011;7822;48.146;11.576;2022-10-28T10:06:30;4.13;;;2.10;;
15443;SDS011;7822;48.146;11.576;2022-10-28T10:09:01;6.00;;;2.20;;
15443;SDS011;7822;48.146;11.576;2022-10-28T10:11:31;5.82;;;2.00;;
15443;SDS011;7822;48.146;11.576;2022-10-28T10:14:03;3.35;;;1.75;;
15443;SDS011;7822;48.146;11.576;2022-10-28T10:16:36;2.25;;;1.85;;
15443;SDS011;7822;48.146;11.576;2022-10-28T10:19:07;4.80;;;1.83;;
15443;SDS011;7822;48.146;11.576;2022-10-28T10:21:42;2.65;;;1.63;;
15443;SDS011;7822;48.146;11.576;2022-10-28T10:24:21;3.63;;;1.45;;
15443;SDS011;7822;48.146;11.576;2022-10-28T10:26:50;3.97;;;2.00;;
15443;SDS011;7822;48.146;11.576;2022-10-28T10:29:19;2.58;;;1.73;;
15443;SDS011;7822;48.146;11.576;2022-10-28T10:31:47;3.20;;;1.77;;
15443;SDS011;7822;48.146;11.576;2022-10-28T10:34:30;2.55;;;1.45;;
15443;SDS011;7822;48.146;11.576;2022-10-28T10:37:00;5.28;;;2.00;;
15443;SDS011;7822;48.146;11.576;2022-10-28T10:39:36;4.25;;;2.17;;
15443;SDS011;7822;48.146;11.576;2022-10-28T10:42:13;3.55;;;2.03;;
15443;SDS011;7822;48.146;11.576;2022-10-28T10:44:57;5.68;;;1.90;;
15443;SDS011;7822;48.146;11.576;2022-10-28T10:47:27;4.53;;;1.85;;
15443;SDS011;7822;48.146;11.576;2022-10-28T10:52:51;2.13;;;1.20;;
15443;SDS011;7822;48.146;11.576;2022-10-28T10:55:24;4.18;;;1.85;;
15443;SDS011;7822;48.146;11.576;2022-10-28T10:57:58;4.47;;;1.83;;
15443;SDS011;7822;48.146;11.576;2022-10-28T11:00:29;6.50;;;2.28;;
15443;SDS011;7822;48.146;11.576;2022-10-28T11:03:00;3.65;;;1.80;;
15443;SDS011;7822;48.146;11.576;2022-10-28T11:05:29;4.40;;;1.33;;
15443;SDS011;7822;48.146;11.576;2022-10-28T11:08:04;4.28;;;1.38;;
15443;SDS011;7822;48.146;11.576;2022-10-28T11:10:32;4.70;;;2.30;;
15443;SDS011;7822;48.146;11.576;2022-10-28T11:13:02;3.85;;;2.80;;
15443;SDS011;7822;48.146;11.576;2022-10-28T11:15:31;3.20;;;2.13;;
15443;SDS011;7822;48.146;11.576;2022-10-28T11:18:00;3.83;;;1.80;;
15443;SDS011;7822;48.146;11.576;2022-10-28T11:20:46;4.75;;;1.90;;
15443;SDS011;7822;48.146;11.576;2022-10-28T11:23:28;4.18;;;1.75;;
15443;SDS011;7822;48.146;11.576;2022-10-28T11:26:11;2.50;;;1.40;;
15443;SDS011;7822;48.146;11.576;2022-10-28T11:28:45;3.13;;;1.70;;
15443;SDS011;7822;48.146;11.576;2022-10-28T11:42:40;2.97;;;1.73;;
15443;SDS011;7822;48.146;11.576;2022-10-28T11:45:15;3.17;;;1.48;;
15443;SDS011;7822;48.146;11.576;2022-10-28T11:47:58;3.22;;;1.70;;
15443;SDS011;7822;48.146;11.576;2022-10-28T11:50:37;4.40;;;1.92;;
15443;SDS011;7822;48.146;11.576;2022-10-28T11:53:19;4.63;;;2.00;;
15443;SDS011;7822;48.146;11.576;2022-10-28T11:56:07;4.10;;;1.70;;
15443;SDS011;7822;48.146;11.576;2022-10-28T11:58:45;3.03;;;1.70;;
15443;SDS011;7822;48.146;11.576;2022-10-28T12:01:27;4.50;;;1.90;;
15443;SDS011;7822;48.146;11.576;2022-10-28T12:04:11;2.78;;;1.58;;
15443;SDS011;7822;48.146;11.576;2022-10-28T12:06:54;2.08;;;1.27;;
15443;SDS011;7822;48.146;11.576;2022-10-28T12:09:56;2.13;;;1.35;;
15443;SDS011;7822;48.146;11.576;2022-10-28T12:12:36;2.72;;;1.50;;
15443;SDS011;7822;48.146;11.576;2022-10-28T12:15:20;1.80;;;1.48;;
15443;SDS011;7822;48.146;11.576;2022-10-28T12:17:56;3.78;;;1.40;;
15443;SDS011;7822;48.146;11.576;2022-10-28T12:20:33;3.92;;;1.55;;
15443;SDS011;7822;48.146;11.576;2022-10-28T12:23:04;2.42;;;1.23;;
15443;SDS011;7822;48.146;11.576;2022-10-28T12:25:38;3.70;;;1.10;;
15443;SDS011;7822;48.146;11.576;2022-10-28T12:28:13;2.58;;;1.10;;
15443;SDS011;7822;48.146;11.576;2022-10-28T12:30:47;2.50;;;1.27;;
15443;SDS011;7822;48.146;11.576;2022-10-28T12:33:18;2.25;;;1.23;;
15443;SDS011;7822;48.146;11.576;2022-10-28T12:35:50;1.90;;;1.17;;
15443;SDS011;7822;48.146;11.576;2022-10-28T12:38:22;3.45;;;1.38;;
15443;SDS011;7822;48.146;11.576;2022-10-28T12:40:58;4.03;;;2.10;;
15443;SDS011;7822;48.146;11.576;2022-10-28T12:43:32;1.60;;;1.20;;
15443;SDS011;7822;48.146;11.576;2022-10-28T12:46:06;4.47;;;1.73;;
15443;SDS011;7822;48.146;11.576;2022-10-28T12:48:45;4.07;;;1.40;;
15443;SDS011;7822;48.146;11.576;2022-10-28T12:51:18;2.55;;;1.00;;
15443;SDS011;7822;48.146;11.576;2022-10-28T12:53:52;2.20;;;0.95;;
15443;SDS011;7822;48.146;11.576;2022-10-28T12:56:25;1.48;;;1.17;;
15443;SDS011;7822;48.146;11.576;2022-10-28T12:58:58;3.40;;;1.50;;
15443;SDS011;7822;48.146;11.576;2022-10-28T13:01:32;3.90;;;1.20;;
15443;SDS011;7822;48.146;11.576;2022-10-28T13:04:02;1.88;;;1.10;;
15443;SDS011;7822;48.146;11.576;2022-10-28T13:06:45;2.60;;;1.27;;
15443;SDS011;7822;48.146;11.576;2022-10-28T13:09:40;3.00;;;1.67;;
15443;SDS011;7822;48.146;11.576;2022-10-28T13:12:26;1.75;;;1.08;;
15443;SDS011;7822;48.146;11.576;2022-10-28T13:21:14;3.15;;;1.67;;
15443;SDS011;7822;48.146;11.576;2022-10-28T13:23:56;3.17;;;1.80;;
15443;SDS011;7822;48.146;11.576;2022-10-28T13:26:30;3.22;;;1.38;;
15443;SDS011;7822;48.146;11.576;2022-10-28T13:29:01;4.80;;;1.70;;
15443;SDS011;7822;48.146;11.576;2022-10-28T13:31:36;3.85;;;1.50;;
15443;SDS011;7822;48.146;11.576;2022-10-28T13:34:06;2.45;;;1.20;;
15443;SDS011;7822;48.146;11.576;2022-10-28T13:36:37;3.63;;;1.30;;
15443;SDS011;7822;48.146;11.576;2022-10-28T13:39:20;2.63;;;1.10;;
15443;SDS011;7822;48.146;11.576;2022-10-28T13:44:51;1.45;;;1.10;;
15443;SDS011;7822;48.146;11.576;2022-10-28T13:47:22;1.88;;;1.20;;
15443;SDS011;7822;48.146;11.576;2022-10-28T13:50:08;3.88;;;1.20;;
15443;SDS011;7822;48.146;11.576;2022-10-28T13:52:42;3.25;;;1.40;;
15443;SDS011;7822;48.146;11.576;2022-10-28T13:55:19;2.72;;;1.30;;
15443;SDS011;7822;48.146;11.576;2022-10-28T13:57:48;3.40;;;1.40;;
15443;SDS011;7822;48.146;11.576;2022-10-28T14:00:34;2.05;;;1.50;;
15443;SDS011;7822;48.146;11.576;2022-10-28T14:03:03;1.23;;;1.10;;
15443;SDS011;7822;48.146;11.576;2022-10-28T14:05:52;2.42;;;1.23;;
15443;SDS011;7822;48.146;11.576;2022-10-28T14:08:25;1.38;;;1.10;;
15443;SDS011;7822;48.146;11.576;2022-10-28T14:10:58;3.67;;;1.40;;
15443;SDS011;7822;48.146;11.576;2022-10-28T14:13:31;2.90;;;1.30;;
15443;SDS011;7822;48.146;11.576;2022-10-28T14:16:24;2.22;;;1.40;;
15443;SDS011;7822;48.146;11.576;2022-10-28T14:18:57;2.85;;;1.35;;
15443;SDS011;7822;48.146;11.576;2022-10-28T14:21:37;3.17;;;1.73;;
15443;SDS011;7822;48.146;11.576;2022-10-28T14:24:09;3.85;;;1.60;;
15443;SDS011;7822;48.146;11.576;2022-10-28T14:30:13;3.50;;;2.35;;
15443;SDS011;7822;48.146;11.576;2022-10-28T14:35:46;3.58;;;1.42;;
15443;SDS011;7822;48.146;11.576;2022-10-28T14:38:31;4.85;;;2.00;;
15443;SDS011;7822;48.146;11.576;2022-10-28T14:41:24;1.88;;;1.45;;
15443;SDS011;7822;48.146;11.576;2022-10-28T14:44:08;2.33;;;1.70;;
15443;SDS011;7822;48.146;11.576;2022-10-28T14:46:50;3.50;;;1.60;;
15443;SDS011;7822;48.146;11.576;2022-10-28T14:49:29;3.47;;;2.03;;
15443;SDS011;7822;48.146;11.576;2022-10-28T14:52:02;2.92;;;1.80;;
15443;SDS011;7822;48.146;11.576;2022-10-28T14:54:34;3.08;;;1.83;;
15443;SDS011;7822;48.146;11.576;2022-10-28T14:57:07;5.00;;;2.10;;
15443;SDS011;7822;48.146;11.576;2022-10-28T14:59:36;4.07;;;2.33;;
15443;SDS011;7822;48.146;11.576;2022-10-28T15:02:09;4.63;;;2.05;;
15443;SDS011;7822;48.146;11.576;2022-10-28T15:04:39;4.53;;;2.05;;
15443;SDS011;7822;48.146;11.576;2022-10-28T15:07:10;4.80;;;2.35;;
15443;SDS011;7822;48.146;11.576;2022-10-28T15:09:39;3.65;;;2.28;;
15443;SDS011;7822;48.146;11.576;2022-10-28T15:12:11;2.80;;;1.88;;
15443;SDS011;7822;48.146;11.576;2022-10-28T15:14:44;5.15;;;2.10;;
15443;SDS011;7822;48.146;11.576;2022-10-28T15:17:14;4.13;;;2.00;;
15443;SDS011;7822;48.146;11.576;2022-10-28T15:19:43;4.70;;;2.45;;
15443;SDS011;7822;48.146;11.576;2022-10-28T15:22:12;9.65;;;2.78;;
15443;SDS011;7822;48.146;11.576;2022-10-28T15:24:51;8.48;;;2.83;;
15443;SDS011;7822;48.146;11.576;2022-10-28T15:27:21;4.00;;;2.30;;
15443;SDS011;7822;48.146;11.576;2022-10-28T15:29:50;3.88;;;2.30;;
15443;SDS011;7822;48.146;11.576;2022-10-28T15:32:26;5.90;;;2.85;;
15443;SDS011;7822;48.146;11.576;2022-10-28T15:34:58;9.38;;;2.67;;
15443;SDS011;7822;48.146;11.576;2022-10-28T15:37:27;4.70;;;2.50;;
15443;SDS011;7822;48.146;11.576;2022-10-28T15:40:10;4.07;;;2.45;;
15443;SDS011;7822;48.146;11.576;2022-10-28T15:42:49;6.25;;;2.75;;
15443;SDS011;7822;48.146;11.576;2022-10-28T15:45:22;7.05;;;3.42;;
15443;SDS011;7822;48.146;11.576;2022-10-28T15:47:51;7.57;;;3.40;;
15443;SDS011;7822;48.146;11.576;2022-10-28T15:50:28;2.85;;;2.40;;
15443;SDS011;7822;48.146;11.576;2022-10-28T15:56:08;4.03;;;2.50;;
15443;SDS011;7822;48.146;11.576;2022-10-28T15:58:46;6.15;;;2.88;;